Songa Calabria — D5OE7 — position and weather

sailwx.info

Track history (hours):
 
Tides and Currents Weather Stations Pressure Air Temp Water Temp Dewpoint Dewpoint Depression Visibility Wind Speed Wind Dir Waves Ship Positions

Songa Calabria

Last reported at 2017-Oct-26 07:26 UTC. Time now 2017-Nov-23 07:53 UTC.
Position N 31°15' E 032°18'.
Warning: this ship's position is 28 days out of date.

Length 261 m; draft 10.7 m.

Type: Ship (hazmat cat A). MMSI: 636018105.

Date/timePositionNaut miles runAvg speedWind from/ knotsBaromVisibWave heightAir tempDewpointWater temp
2017-Oct-26 07:26N 31°15' E 032°18'1 2.4
2017-Oct-26 07:00N 31°15' E 032°19'  
2017-Oct-21 14:34N 38°03' E 024°47'118.2
2017-Oct-21 14:30N 38°03' E 024°46'49515.3
2017-Oct-20 06:02N 35°49' E 014°49'012.0
2017-Oct-20 06:00N 35°49' E 014°49'612.0
2017-Oct-20 05:30N 35°49' E 014°41'610.9
2017-Oct-20 04:55N 35°49' E 014°34'1 0.1
2017-Oct-19 16:27N 35°49' E 014°32'0 0.0
2017-Oct-19 16:00N 35°49' E 014°32'0 0.0
2017-Oct-19 15:30N 35°49' E 014°32'0 0.0
2017-Oct-19 08:09N 35°49' E 014°32'0 0.0
2017-Oct-19 07:51N 35°49' E 014°32'1 1.5
2017-Oct-19 07:26N 35°49' E 014°33'4 6.3
2017-Oct-19 06:50N 35°47' E 014°37'4 8.2
2017-Oct-19 06:23N 35°46' E 014°41'410.6
2017-Oct-19 06:00N 35°46' E 014°46'44511.4
2017-Oct-17 14:52N 37°33' E 023°45'513.7
2017-Oct-17 14:29N 37°38' E 023°44'713.9
2017-Oct-17 13:58N 37°44' E 023°40'613.7
2017-Oct-17 13:31N 37°50' E 023°37'611.6
2017-Oct-17 13:00N 37°56' E 023°36'2 3.3
2017-Oct-17 12:30N 37°57' E 023°35'0 0.4
2017-Oct-17 11:59N 37°57' E 023°35'0 0.0
2017-Oct-17 11:23N 37°57' E 023°35'0 0.0
2017-Oct-17 10:59N 37°57' E 023°35'0 0.0
2017-Oct-17 10:23N 37°57' E 023°35'0 0.0
2017-Oct-17 09:53N 37°57' E 023°35'0 0.0
2017-Oct-17 09:29N 37°57' E 023°35'0 0.0
2017-Oct-17 08:53N 37°57' E 023°35'0 0.0
2017-Oct-17 08:23N 37°57' E 023°35'0 0.0
2017-Oct-17 07:59N 37°57' E 023°35'0 0.0
2017-Oct-17 07:29N 37°57' E 023°35'0 0.0
2017-Oct-17 06:59N 37°57' E 023°35'0 0.0
2017-Oct-17 06:29N 37°57' E 023°35'0 0.0
2017-Oct-17 05:59N 37°57' E 023°35'0 0.0
2017-Oct-17 05:29N 37°57' E 023°35'0 0.0
2017-Oct-17 04:59N 37°57' E 023°35'0 0.0
2017-Oct-17 04:29N 37°57' E 023°35'0 0.0
2017-Oct-17 03:59N 37°57' E 023°35'0 0.0
2017-Oct-17 03:29N 37°57' E 023°35'0 0.0
2017-Oct-17 02:59N 37°57' E 023°35'0 0.0
2017-Oct-17 02:29N 37°57' E 023°35'0 0.0
2017-Oct-17 01:59N 37°57' E 023°35'0 0.0
2017-Oct-17 01:29N 37°57' E 023°35'0 0.0
2017-Oct-17 00:59N 37°57' E 023°35'0 0.0
2017-Oct-17 00:29N 37°57' E 023°35'0 0.0
2017-Oct-16 23:59N 37°57' E 023°35'0 0.0
2017-Oct-16 23:29N 37°57' E 023°35'0 0.0
2017-Oct-16 22:59N 37°57' E 023°35'0 0.0
2017-Oct-16 22:29N 37°57' E 023°35'0 0.0
2017-Oct-16 21:59N 37°57' E 023°35'0 0.0
2017-Oct-16 21:29N 37°57' E 023°35'0 0.0
2017-Oct-16 20:59N 37°57' E 023°35'0 0.0
2017-Oct-16 20:29N 37°57' E 023°35'0 0.0
2017-Oct-16 19:59N 37°57' E 023°35'0 0.0
2017-Oct-16 19:29N 37°57' E 023°35'0 0.0
2017-Oct-16 18:59N 37°57' E 023°35'0 0.0
2017-Oct-16 18:29N 37°57' E 023°35'0 0.0
2017-Oct-16 17:59N 37°57' E 023°35'0 0.0
2017-Oct-16 17:29N 37°57' E 023°35'0 0.0
2017-Oct-16 16:59N 37°57' E 023°35'0 0.0
2017-Oct-16 16:29N 37°57' E 023°35'0 0.0
2017-Oct-16 15:59N 37°57' E 023°35'0 0.0
2017-Oct-16 15:29N 37°57' E 023°35'0 0.0
2017-Oct-16 14:59N 37°57' E 023°35'0 0.0
2017-Oct-16 13:59N 37°57' E 023°35'0 0.0
2017-Oct-16 13:29N 37°57' E 023°35'0 0.0
2017-Oct-16 12:59N 37°57' E 023°35'0 0.0
2017-Oct-16 12:29N 37°57' E 023°35'0 0.0
2017-Oct-16 11:59N 37°57' E 023°35'0 0.3
2017-Oct-16 11:30N 37°57' E 023°35'2 4.5
2017-Oct-16 11:00N 37°55' E 023°36'4 8.9
2017-Oct-16 10:30N 37°51' E 023°39'612.7
2017-Oct-16 10:00N 37°46' E 023°42'715.0
2017-Oct-16 09:31N 37°39' E 023°47'  
Track history (hours):
 
Tides and Currents Weather Stations Pressure Air Temp Water Temp Dewpoint Dewpoint Depression Visibility Wind Speed Wind Dir Waves Ship Positions

Songa Calabria

Last reported at 2017-Oct-26 07:26 UTC. Time now 2017-Nov-23 07:53 UTC.
Position N 31°15' E 032°18'.
Warning: this ship's position is 28 days out of date.

Length 261 m; draft 10.7 m.

Type: Ship (hazmat cat A). MMSI: 636018105.

Date/timePositionNaut miles runAvg speedWind from/ knotsBaromVisibWave heightAir tempDewpointWater temp
2017-Oct-26 07:26N 31°15' E 032°18'1 2.4
2017-Oct-26 07:00N 31°15' E 032°19'  
2017-Oct-21 14:34N 38°03' E 024°47'118.2
2017-Oct-21 14:30N 38°03' E 024°46'49515.3
2017-Oct-20 06:02N 35°49' E 014°49'012.0
2017-Oct-20 06:00N 35°49' E 014°49'612.0
2017-Oct-20 05:30N 35°49' E 014°41'610.9
2017-Oct-20 04:55N 35°49' E 014°34'1 0.1
2017-Oct-19 16:27N 35°49' E 014°32'0 0.0
2017-Oct-19 16:00N 35°49' E 014°32'0 0.0
2017-Oct-19 15:30N 35°49' E 014°32'0 0.0
2017-Oct-19 08:09N 35°49' E 014°32'0 0.0
2017-Oct-19 07:51N 35°49' E 014°32'1 1.5
2017-Oct-19 07:26N 35°49' E 014°33'4 6.3
2017-Oct-19 06:50N 35°47' E 014°37'4 8.2
2017-Oct-19 06:23N 35°46' E 014°41'410.6
2017-Oct-19 06:00N 35°46' E 014°46'44511.4
2017-Oct-17 14:52N 37°33' E 023°45'513.7
2017-Oct-17 14:29N 37°38' E 023°44'713.9
2017-Oct-17 13:58N 37°44' E 023°40'613.7
2017-Oct-17 13:31N 37°50' E 023°37'611.6
2017-Oct-17 13:00N 37°56' E 023°36'2 3.3
2017-Oct-17 12:30N 37°57' E 023°35'0 0.4
2017-Oct-17 11:59N 37°57' E 023°35'0 0.0
2017-Oct-17 11:23N 37°57' E 023°35'0 0.0
2017-Oct-17 10:59N 37°57' E 023°35'0 0.0
2017-Oct-17 10:23N 37°57' E 023°35'0 0.0
2017-Oct-17 09:53N 37°57' E 023°35'0 0.0
2017-Oct-17 09:29N 37°57' E 023°35'0 0.0
2017-Oct-17 08:53N 37°57' E 023°35'0 0.0
2017-Oct-17 08:23N 37°57' E 023°35'0 0.0
2017-Oct-17 07:59N 37°57' E 023°35'0 0.0
2017-Oct-17 07:29N 37°57' E 023°35'0 0.0
2017-Oct-17 06:59N 37°57' E 023°35'0 0.0
2017-Oct-17 06:29N 37°57' E 023°35'0 0.0
2017-Oct-17 05:59N 37°57' E 023°35'0 0.0
2017-Oct-17 05:29N 37°57' E 023°35'0 0.0
2017-Oct-17 04:59N 37°57' E 023°35'0 0.0
2017-Oct-17 04:29N 37°57' E 023°35'0 0.0
2017-Oct-17 03:59N 37°57' E 023°35'0 0.0
2017-Oct-17 03:29N 37°57' E 023°35'0 0.0
2017-Oct-17 02:59N 37°57' E 023°35'0 0.0
2017-Oct-17 02:29N 37°57' E 023°35'0 0.0
2017-Oct-17 01:59N 37°57' E 023°35'0 0.0
2017-Oct-17 01:29N 37°57' E 023°35'0 0.0
2017-Oct-17 00:59N 37°57' E 023°35'0 0.0
2017-Oct-17 00:29N 37°57' E 023°35'0 0.0
2017-Oct-16 23:59N 37°57' E 023°35'0 0.0
2017-Oct-16 23:29N 37°57' E 023°35'0 0.0
2017-Oct-16 22:59N 37°57' E 023°35'0 0.0
2017-Oct-16 22:29N 37°57' E 023°35'0 0.0
2017-Oct-16 21:59N 37°57' E 023°35'0 0.0
2017-Oct-16 21:29N 37°57' E 023°35'0 0.0
2017-Oct-16 20:59N 37°57' E 023°35'0 0.0
2017-Oct-16 20:29N 37°57' E 023°35'0 0.0
2017-Oct-16 19:59N 37°57' E 023°35'0 0.0
2017-Oct-16 19:29N 37°57' E 023°35'0 0.0
2017-Oct-16 18:59N 37°57' E 023°35'0 0.0
2017-Oct-16 18:29N 37°57' E 023°35'0 0.0
2017-Oct-16 17:59N 37°57' E 023°35'0 0.0
2017-Oct-16 17:29N 37°57' E 023°35'0 0.0
2017-Oct-16 16:59N 37°57' E 023°35'0 0.0
2017-Oct-16 16:29N 37°57' E 023°35'0 0.0
2017-Oct-16 15:59N 37°57' E 023°35'0 0.0
2017-Oct-16 15:29N 37°57' E 023°35'0 0.0
2017-Oct-16 14:59N 37°57' E 023°35'0 0.0
2017-Oct-16 13:59N 37°57' E 023°35'0 0.0
2017-Oct-16 13:29N 37°57' E 023°35'0 0.0
2017-Oct-16 12:59N 37°57' E 023°35'0 0.0
2017-Oct-16 12:29N 37°57' E 023°35'0 0.0
2017-Oct-16 11:59N 37°57' E 023°35'0 0.3
2017-Oct-16 11:30N 37°57' E 023°35'2 4.5
2017-Oct-16 11:00N 37°55' E 023°36'4 8.9
2017-Oct-16 10:30N 37°51' E 023°39'612.7
2017-Oct-16 10:00N 37°46' E 023°42'715.0
2017-Oct-16 09:31N 37°39' E 023°47'  

Dump ship's entire track history